Etna, New Hampshire
Current Conditions -  °F | °C
As of 10:53 AM on Friday 21 Nov 2014 (Local Time) from KLEB Reporting Station
Light Snow Light Snow  
Wind Chill: 17°   Ceiling: 4100
Heat Index: 29°   Visibility: 9mi
Dew Point: 10°   Wind: 16mph
Humidity: 45%   Direction: 330°NNW
Pressure: 30.11"   Gusts: 26mph
Location:  43.69°N, 72.22°W
Report Text: KLEB 211553Z 33014G23KT 300V360 9SM -SN OVC041 M02/M12 A3011 RMK AO2 SNB1454 SLP207 P0000 T10171122
Loading
Personal Weather Stations






























Interactive Weather Map New forecast layout! Learn more

10-Day Weather Forecast

Advertisements
Track Severe Weather on mobile